sensor_id;sensor_type;location;lat;lon;timestamp;temperature;humidity
16116;DHT22;8162;47.104;15.432;2023-01-09T00:01:02;3.10;85.70
16116;DHT22;8162;47.104;15.432;2023-01-09T00:03:28;3.10;85.70
16116;DHT22;8162;47.104;15.432;2023-01-09T00:05:53;3.10;85.90
16116;DHT22;8162;47.104;15.432;2023-01-09T00:08:19;3.10;85.90
16116;DHT22;8162;47.104;15.432;2023-01-09T00:10:45;3.10;85.80
16116;DHT22;8162;47.104;15.432;2023-01-09T00:13:12;3.10;85.70
16116;DHT22;8162;47.104;15.432;2023-01-09T00:15:39;3.10;85.70
16116;DHT22;8162;47.104;15.432;2023-01-09T00:18:05;3.10;85.70
16116;DHT22;8162;47.104;15.432;2023-01-09T00:20:30;3.10;85.70
16116;DHT22;8162;47.104;15.432;2023-01-09T00:22:56;3.10;85.50
16116;DHT22;8162;47.104;15.432;2023-01-09T00:25:22;3.10;85.50
16116;DHT22;8162;47.104;15.432;2023-01-09T00:27:47;3.10;85.50
16116;DHT22;8162;47.104;15.432;2023-01-09T00:30:13;3.10;85.60
16116;DHT22;8162;47.104;15.432;2023-01-09T00:32:39;3.10;85.70
16116;DHT22;8162;47.104;15.432;2023-01-09T00:35:06;3.10;85.70
16116;DHT22;8162;47.104;15.432;2023-01-09T00:37:34;3.10;85.50
16116;DHT22;8162;47.104;15.432;2023-01-09T00:39:59;3.10;85.30
16116;DHT22;8162;47.104;15.432;2023-01-09T00:42:29;3.10;85.30
16116;DHT22;8162;47.104;15.432;2023-01-09T00:44:59;3.10;84.80
16116;DHT22;8162;47.104;15.432;2023-01-09T00:47:32;3.10;84.60
16116;DHT22;8162;47.104;15.432;2023-01-09T00:50:02;3.20;84.50
16116;DHT22;8162;47.104;15.432;2023-01-09T00:52:30;3.20;84.50
16116;DHT22;8162;47.104;15.432;2023-01-09T00:54:57;3.20;84.50
16116;DHT22;8162;47.104;15.432;2023-01-09T00:57:23;3.20;84.70
16116;DHT22;8162;47.104;15.432;2023-01-09T00:59:51;3.10;84.80
16116;DHT22;8162;47.104;15.432;2023-01-09T01:02:17;3.10;84.90
16116;DHT22;8162;47.104;15.432;2023-01-09T01:04:42;3.10;85.10
16116;DHT22;8162;47.104;15.432;2023-01-09T01:07:27;3.10;85.20
16116;DHT22;8162;47.104;15.432;2023-01-09T01:10:15;3.10;85.00
16116;DHT22;8162;47.104;15.432;2023-01-09T01:12:42;3.20;84.90
16116;DHT22;8162;47.104;15.432;2023-01-09T01:15:09;3.20;84.70
16116;DHT22;8162;47.104;15.432;2023-01-09T01:17:36;3.20;84.90
16116;DHT22;8162;47.104;15.432;2023-01-09T01:20:04;3.20;84.70
16116;DHT22;8162;47.104;15.432;2023-01-09T01:22:30;3.20;84.60
16116;DHT22;8162;47.104;15.432;2023-01-09T01:24:56;3.20;84.70
16116;DHT22;8162;47.104;15.432;2023-01-09T01:27:22;3.10;84.80
16116;DHT22;8162;47.104;15.432;2023-01-09T01:29:48;3.20;84.70
16116;DHT22;8162;47.104;15.432;2023-01-09T01:32:14;3.20;84.70
16116;DHT22;8162;47.104;15.432;2023-01-09T01:34:40;3.10;84.60
16116;DHT22;8162;47.104;15.432;2023-01-09T01:37:05;3.10;84.70
16116;DHT22;8162;47.104;15.432;2023-01-09T01:39:31;3.10;85.00
16116;DHT22;8162;47.104;15.432;2023-01-09T01:41:57;3.10;85.00
16116;DHT22;8162;47.104;15.432;2023-01-09T01:51:17;3.10;85.10
16116;DHT22;8162;47.104;15.432;2023-01-09T01:53:36;3.10;85.10
16116;DHT22;8162;47.104;15.432;2023-01-09T01:59:00;3.10;85.30
16116;DHT22;8162;47.104;15.432;2023-01-09T02:01:28;3.10;85.40
16116;DHT22;8162;47.104;15.432;2023-01-09T02:03:56;3.10;85.60
16116;DHT22;8162;47.104;15.432;2023-01-09T02:06:22;3.10;85.50
16116;DHT22;8162;47.104;15.432;2023-01-09T02:08:49;3.10;85.40
16116;DHT22;8162;47.104;15.432;2023-01-09T02:11:17;3.10;85.50
16116;DHT22;8162;47.104;15.432;2023-01-09T02:13:43;3.10;85.40
16116;DHT22;8162;47.104;15.432;2023-01-09T02:16:29;3.10;85.50
16116;DHT22;8162;47.104;15.432;2023-01-09T02:38:55;3.10;86.10
16116;DHT22;8162;47.104;15.432;2023-01-09T02:41:35;3.10;86.10
16116;DHT22;8162;47.104;15.432;2023-01-09T02:44:25;3.20;86.00
16116;DHT22;8162;47.104;15.432;2023-01-09T02:49:52;3.30;86.30
16116;DHT22;8162;47.104;15.432;2023-01-09T03:05:40;3.30;85.50
16116;DHT22;8162;47.104;15.432;2023-01-09T03:08:19;3.30;85.50
16116;DHT22;8162;47.104;15.432;2023-01-09T03:10:54;3.30;85.50
16116;DHT22;8162;47.104;15.432;2023-01-09T03:13:24;3.30;85.50
16116;DHT22;8162;47.104;15.432;2023-01-09T03:15:52;3.30;85.30
16116;DHT22;8162;47.104;15.432;2023-01-09T03:18:23;3.30;85.40
16116;DHT22;8162;47.104;15.432;2023-01-09T03:20:49;3.30;85.60
16116;DHT22;8162;47.104;15.432;2023-01-09T03:23:16;3.30;85.50
16116;DHT22;8162;47.104;15.432;2023-01-09T03:25:41;3.30;85.50
16116;DHT22;8162;47.104;15.432;2023-01-09T03:28:24;3.30;85.40
16116;DHT22;8162;47.104;15.432;2023-01-09T03:30:50;3.30;85.30
16116;DHT22;8162;47.104;15.432;2023-01-09T03:33:15;3.30;85.40
16116;DHT22;8162;47.104;15.432;2023-01-09T03:35:41;3.30;85.40
16116;DHT22;8162;47.104;15.432;2023-01-09T03:38:07;3.30;85.40
16116;DHT22;8162;47.104;15.432;2023-01-09T03:40:32;3.30;85.20
16116;DHT22;8162;47.104;15.432;2023-01-09T03:42:58;3.30;85.50
16116;DHT22;8162;47.104;15.432;2023-01-09T03:45:24;3.30;85.50
16116;DHT22;8162;47.104;15.432;2023-01-09T03:47:49;3.30;85.50
16116;DHT22;8162;47.104;15.432;2023-01-09T03:50:15;3.30;85.70
16116;DHT22;8162;47.104;15.432;2023-01-09T03:52:41;3.30;85.70
16116;DHT22;8162;47.104;15.432;2023-01-09T03:55:07;3.30;85.60
16116;DHT22;8162;47.104;15.432;2023-01-09T03:57:33;3.30;86.30
16116;DHT22;8162;47.104;15.432;2023-01-09T03:59:58;3.30;86.00
16116;DHT22;8162;47.104;15.432;2023-01-09T04:02:24;3.30;86.00
16116;DHT22;8162;47.104;15.432;2023-01-09T04:04:50;3.30;85.90
16116;DHT22;8162;47.104;15.432;2023-01-09T04:07:15;3.30;86.00
16116;DHT22;8162;47.104;15.432;2023-01-09T04:09:41;3.30;85.90
16116;DHT22;8162;47.104;15.432;2023-01-09T04:12:07;3.30;86.20
16116;DHT22;8162;47.104;15.432;2023-01-09T04:14:32;3.40;86.20
16116;DHT22;8162;47.104;15.432;2023-01-09T04:16:58;3.40;86.20
16116;DHT22;8162;47.104;15.432;2023-01-09T04:19:24;3.50;86.20
16116;DHT22;8162;47.104;15.432;2023-01-09T04:21:49;3.50;86.20
16116;DHT22;8162;47.104;15.432;2023-01-09T04:24:15;3.50;86.60
16116;DHT22;8162;47.104;15.432;2023-01-09T04:26:42;3.50;86.60
16116;DHT22;8162;47.104;15.432;2023-01-09T04:29:07;3.50;86.60
16116;DHT22;8162;47.104;15.432;2023-01-09T04:31:33;3.50;86.50
16116;DHT22;8162;47.104;15.432;2023-01-09T04:33:59;3.50;86.00
16116;DHT22;8162;47.104;15.432;2023-01-09T04:36:24;3.50;86.20
16116;DHT22;8162;47.104;15.432;2023-01-09T04:38:50;3.50;86.10
16116;DHT22;8162;47.104;15.432;2023-01-09T04:41:16;3.50;86.10
16116;DHT22;8162;47.104;15.432;2023-01-09T04:44:02;3.50;86.20
16116;DHT22;8162;47.104;15.432;2023-01-09T04:46:28;3.50;86.40
16116;DHT22;8162;47.104;15.432;2023-01-09T04:48:54;3.50;86.40
16116;DHT22;8162;47.104;15.432;2023-01-09T04:51:19;3.50;86.40
16116;DHT22;8162;47.104;15.432;2023-01-09T04:53:45;3.50;86.50
16116;DHT22;8162;47.104;15.432;2023-01-09T04:56:11;3.60;86.50
16116;DHT22;8162;47.104;15.432;2023-01-09T04:58:36;3.50;86.20
16116;DHT22;8162;47.104;15.432;2023-01-09T05:01:02;3.50;86.40
16116;DHT22;8162;47.104;15.432;2023-01-09T05:03:28;3.60;86.20
16116;DHT22;8162;47.104;15.432;2023-01-09T05:05:53;3.60;86.10
16116;DHT22;8162;47.104;15.432;2023-01-09T05:08:19;3.60;86.00
16116;DHT22;8162;47.104;15.432;2023-01-09T05:10:45;3.60;86.10
16116;DHT22;8162;47.104;15.432;2023-01-09T05:13:10;3.60;86.00
16116;DHT22;8162;47.104;15.432;2023-01-09T05:15:36;3.60;86.00
16116;DHT22;8162;47.104;15.432;2023-01-09T05:18:02;3.60;86.00
16116;DHT22;8162;47.104;15.432;2023-01-09T05:20:27;3.60;85.90
16116;DHT22;8162;47.104;15.432;2023-01-09T05:22:53;3.60;86.00
16116;DHT22;8162;47.104;15.432;2023-01-09T05:25:19;3.60;86.00
16116;DHT22;8162;47.104;15.432;2023-01-09T05:27:44;3.60;86.10
16116;DHT22;8162;47.104;15.432;2023-01-09T05:30:12;3.60;86.10
16116;DHT22;8162;47.104;15.432;2023-01-09T05:32:38;3.50;86.10
16116;DHT22;8162;47.104;15.432;2023-01-09T05:35:03;3.50;86.10
16116;DHT22;8162;47.104;15.432;2023-01-09T05:37:29;3.50;86.30
16116;DHT22;8162;47.104;15.432;2023-01-09T05:39:55;3.50;86.50
16116;DHT22;8162;47.104;15.432;2023-01-09T05:42:20;3.50;86.40
16116;DHT22;8162;47.104;15.432;2023-01-09T05:44:46;3.40;86.40
16116;DHT22;8162;47.104;15.432;2023-01-09T05:47:12;3.40;86.60
16116;DHT22;8162;47.104;15.432;2023-01-09T05:49:38;3.40;86.50
16116;DHT22;8162;47.104;15.432;2023-01-09T05:52:04;3.40;86.30
16116;DHT22;8162;47.104;15.432;2023-01-09T05:54:29;3.40;86.40
16116;DHT22;8162;47.104;15.432;2023-01-09T05:56:55;3.30;86.40
16116;DHT22;8162;47.104;15.432;2023-01-09T05:59:21;3.30;86.60
16116;DHT22;8162;47.104;15.432;2023-01-09T06:01:47;3.30;86.10
16116;DHT22;8162;47.104;15.432;2023-01-09T06:04:13;3.30;86.30
16116;DHT22;8162;47.104;15.432;2023-01-09T06:06:38;3.20;86.40
16116;DHT22;8162;47.104;15.432;2023-01-09T06:09:05;3.20;86.60
16116;DHT22;8162;47.104;15.432;2023-01-09T06:11:31;3.10;86.60
16116;DHT22;8162;47.104;15.432;2023-01-09T06:14:00;3.20;86.60
16116;DHT22;8162;47.104;15.432;2023-01-09T06:16:26;3.10;86.80
16116;DHT22;8162;47.104;15.432;2023-01-09T06:18:52;3.20;86.80
16116;DHT22;8162;47.104;15.432;2023-01-09T06:21:18;3.20;86.90
16116;DHT22;8162;47.104;15.432;2023-01-09T06:23:43;3.10;87.10
16116;DHT22;8162;47.104;15.432;2023-01-09T06:26:09;3.10;86.90
16116;DHT22;8162;47.104;15.432;2023-01-09T06:28:35;3.20;86.90
16116;DHT22;8162;47.104;15.432;2023-01-09T06:31:00;3.20;86.60
16116;DHT22;8162;47.104;15.432;2023-01-09T06:33:26;3.20;86.80
16116;DHT22;8162;47.104;15.432;2023-01-09T06:35:52;3.10;86.90
16116;DHT22;8162;47.104;15.432;2023-01-09T06:38:18;3.20;86.80
16116;DHT22;8162;47.104;15.432;2023-01-09T06:40:43;3.30;86.80
16116;DHT22;8162;47.104;15.432;2023-01-09T06:43:09;3.30;86.60
16116;DHT22;8162;47.104;15.432;2023-01-09T06:45:35;3.30;86.80
16116;DHT22;8162;47.104;15.432;2023-01-09T06:48:00;3.30;86.90
16116;DHT22;8162;47.104;15.432;2023-01-09T06:50:26;3.30;86.90
16116;DHT22;8162;47.104;15.432;2023-01-09T06:52:52;3.30;86.90
16116;DHT22;8162;47.104;15.432;2023-01-09T06:55:17;3.30;87.10
16116;DHT22;8162;47.104;15.432;2023-01-09T06:57:43;3.50;87.10
16116;DHT22;8162;47.104;15.432;2023-01-09T07:00:10;3.50;87.10
16116;DHT22;8162;47.104;15.432;2023-01-09T07:02:35;3.50;86.90
16116;DHT22;8162;47.104;15.432;2023-01-09T07:05:01;3.50;87.20
16116;DHT22;8162;47.104;15.432;2023-01-09T07:07:27;3.60;87.50
16116;DHT22;8162;47.104;15.432;2023-01-09T07:09:53;3.60;87.70
16116;DHT22;8162;47.104;15.432;2023-01-09T07:12:19;3.50;87.60
16116;DHT22;8162;47.104;15.432;2023-01-09T07:14:44;3.60;87.40
16116;DHT22;8162;47.104;15.432;2023-01-09T07:17:11;3.60;87.40
16116;DHT22;8162;47.104;15.432;2023-01-09T07:19:37;3.60;87.30
16116;DHT22;8162;47.104;15.432;2023-01-09T07:22:03;3.60;87.10
16116;DHT22;8162;47.104;15.432;2023-01-09T07:24:29;3.60;86.90
16116;DHT22;8162;47.104;15.432;2023-01-09T07:26:54;3.60;86.70
16116;DHT22;8162;47.104;15.432;2023-01-09T07:29:20;3.60;86.80
16116;DHT22;8162;47.104;15.432;2023-01-09T07:31:46;3.60;86.90
16116;DHT22;8162;47.104;15.432;2023-01-09T07:34:12;3.60;87.00
16116;DHT22;8162;47.104;15.432;2023-01-09T07:36:38;3.60;87.10
16116;DHT22;8162;47.104;15.432;2023-01-09T07:39:03;3.70;87.00
16116;DHT22;8162;47.104;15.432;2023-01-09T07:41:29;3.70;87.00
16116;DHT22;8162;47.104;15.432;2023-01-09T07:43:56;3.80;86.90
16116;DHT22;8162;47.104;15.432;2023-01-09T07:46:21;3.80;86.90
16116;DHT22;8162;47.104;15.432;2023-01-09T07:48:47;3.90;86.80
16116;DHT22;8162;47.104;15.432;2023-01-09T07:51:13;3.90;86.80
16116;DHT22;8162;47.104;15.432;2023-01-09T07:53:39;3.90;86.70
16116;DHT22;8162;47.104;15.432;2023-01-09T07:56:04;3.90;86.90
16116;DHT22;8162;47.104;15.432;2023-01-09T07:58:30;4.00;87.00
16116;DHT22;8162;47.104;15.432;2023-01-09T08:00:56;4.00;86.90
16116;DHT22;8162;47.104;15.432;2023-01-09T08:03:22;4.00;87.00
16116;DHT22;8162;47.104;15.432;2023-01-09T08:05:47;4.10;86.90
16116;DHT22;8162;47.104;15.432;2023-01-09T08:08:13;4.10;86.40
16116;DHT22;8162;47.104;15.432;2023-01-09T08:10:39;4.10;86.20
16116;DHT22;8162;47.104;15.432;2023-01-09T08:13:05;4.20;86.00
16116;DHT22;8162;47.104;15.432;2023-01-09T08:15:31;4.20;85.90
16116;DHT22;8162;47.104;15.432;2023-01-09T08:17:58;4.20;85.90
16116;DHT22;8162;47.104;15.432;2023-01-09T08:20:24;4.30;86.10
16116;DHT22;8162;47.104;15.432;2023-01-09T08:22:49;4.30;86.20
16116;DHT22;8162;47.104;15.432;2023-01-09T08:25:17;4.40;86.20
16116;DHT22;8162;47.104;15.432;2023-01-09T08:27:43;4.50;86.40
16116;DHT22;8162;47.104;15.432;2023-01-09T08:30:10;4.50;85.80
16116;DHT22;8162;47.104;15.432;2023-01-09T08:32:36;4.50;85.70
16116;DHT22;8162;47.104;15.432;2023-01-09T08:35:02;4.50;85.60
16116;DHT22;8162;47.104;15.432;2023-01-09T08:37:28;4.60;85.00
16116;DHT22;8162;47.104;15.432;2023-01-09T08:39:54;4.70;84.70
16116;DHT22;8162;47.104;15.432;2023-01-09T08:42:20;4.70;84.50
16116;DHT22;8162;47.104;15.432;2023-01-09T08:45:06;4.70;84.40
16116;DHT22;8162;47.104;15.432;2023-01-09T08:47:51;4.70;84.70
16116;DHT22;8162;47.104;15.432;2023-01-09T08:50:17;4.80;84.50
16116;DHT22;8162;47.104;15.432;2023-01-09T08:52:42;4.90;83.80
16116;DHT22;8162;47.104;15.432;2023-01-09T08:55:08;4.80;84.10
16116;DHT22;8162;47.104;15.432;2023-01-09T08:57:34;4.70;83.90
16116;DHT22;8162;47.104;15.432;2023-01-09T08:59:59;4.80;84.70
16116;DHT22;8162;47.104;15.432;2023-01-09T09:02:25;4.90;84.50
16116;DHT22;8162;47.104;15.432;2023-01-09T09:04:51;5.00;84.70
16116;DHT22;8162;47.104;15.432;2023-01-09T09:07:21;5.00;84.50
16116;DHT22;8162;47.104;15.432;2023-01-09T09:09:54;5.00;84.60
16116;DHT22;8162;47.104;15.432;2023-01-09T09:12:20;5.00;83.50
16116;DHT22;8162;47.104;15.432;2023-01-09T09:14:46;5.00;83.70
16116;DHT22;8162;47.104;15.432;2023-01-09T09:17:30;5.10;84.10
16116;DHT22;8162;47.104;15.432;2023-01-09T09:19:58;5.30;84.10
16116;DHT22;8162;47.104;15.432;2023-01-09T09:22:24;5.30;83.00
16116;DHT22;8162;47.104;15.432;2023-01-09T09:24:50;5.30;83.40
16116;DHT22;8162;47.104;15.432;2023-01-09T09:27:15;5.30;83.20
16116;DHT22;8162;47.104;15.432;2023-01-09T09:29:41;5.30;83.00
16116;DHT22;8162;47.104;15.432;2023-01-09T09:32:07;5.30;83.60
16116;DHT22;8162;47.104;15.432;2023-01-09T09:34:32;5.40;84.70
16116;DHT22;8162;47.104;15.432;2023-01-09T09:36:58;5.40;85.80
16116;DHT22;8162;47.104;15.432;2023-01-09T09:39:24;5.50;87.00
16116;DHT22;8162;47.104;15.432;2023-01-09T09:45:15;5.50;90.00
16116;DHT22;8162;47.104;15.432;2023-01-09T09:50:38;5.50;90.60
16116;DHT22;8162;47.104;15.432;2023-01-09T09:54:05;5.60;91.40
16116;DHT22;8162;47.104;15.432;2023-01-09T09:56:12;5.60;91.70
16116;DHT22;8162;47.104;15.432;2023-01-09T09:59:01;5.60;91.80
16116;DHT22;8162;47.104;15.432;2023-01-09T10:02:03;5.60;91.40
16116;DHT22;8162;47.104;15.432;2023-01-09T10:04:32;5.70;92.20
16116;DHT22;8162;47.104;15.432;2023-01-09T10:07:02;5.70;92.10
16116;DHT22;8162;47.104;15.432;2023-01-09T10:09:50;5.80;93.20
16116;DHT22;8162;47.104;15.432;2023-01-09T10:12:51;5.80;93.90
16116;DHT22;8162;47.104;15.432;2023-01-09T10:20:57;6.00;94.40
16116;DHT22;8162;47.104;15.432;2023-01-09T10:23:58;6.00;94.30
16116;DHT22;8162;47.104;15.432;2023-01-09T10:26:35;5.90;92.70
16116;DHT22;8162;47.104;15.432;2023-01-09T10:31:31;5.90;94.60
16116;DHT22;8162;47.104;15.432;2023-01-09T10:36:59;5.80;93.70
16116;DHT22;8162;47.104;15.432;2023-01-09T10:39:56;5.80;94.70
16116;DHT22;8162;47.104;15.432;2023-01-09T10:47:41;5.90;96.30
16116;DHT22;8162;47.104;15.432;2023-01-09T10:50:21;5.90;96.60
16116;DHT22;8162;47.104;15.432;2023-01-09T10:52:50;5.90;96.60
16116;DHT22;8162;47.104;15.432;2023-01-09T10:55:42;5.90;97.00
16116;DHT22;8162;47.104;15.432;2023-01-09T10:58:17;5.90;97.30
16116;DHT22;8162;47.104;15.432;2023-01-09T11:00:44;5.90;97.30
16116;DHT22;8162;47.104;15.432;2023-01-09T11:03:15;5.80;97.10
16116;DHT22;8162;47.104;15.432;2023-01-09T11:05:42;5.80;97.70
16116;DHT22;8162;47.104;15.432;2023-01-09T11:10:56;5.80;98.50
16116;DHT22;8162;47.104;15.432;2023-01-09T11:13:30;5.70;98.70
16116;DHT22;8162;47.104;15.432;2023-01-09T11:18:46;5.70;98.70
16116;DHT22;8162;47.104;15.432;2023-01-09T11:21:34;5.70;99.00
16116;DHT22;8162;47.104;15.432;2023-01-09T11:26:44;5.70;99.30
16116;DHT22;8162;47.104;15.432;2023-01-09T11:29:12;5.70;99.40
16116;DHT22;8162;47.104;15.432;2023-01-09T11:31:39;5.70;99.60
16116;DHT22;8162;47.104;15.432;2023-01-09T11:34:15;5.70;99.70
16116;DHT22;8162;47.104;15.432;2023-01-09T11:36:42;5.70;99.70
16116;DHT22;8162;47.104;15.432;2023-01-09T11:41:52;5.80;99.90
16116;DHT22;8162;47.104;15.432;2023-01-09T11:44:18;5.80;99.90
16116;DHT22;8162;47.104;15.432;2023-01-09T11:46:44;5.80;99.90
16116;DHT22;8162;47.104;15.432;2023-01-09T11:51:40;5.80;99.90
16116;DHT22;8162;47.104;15.432;2023-01-09T11:54:33;5.80;99.90
16116;DHT22;8162;47.104;15.432;2023-01-09T11:57:00;5.90;99.90
16116;DHT22;8162;47.104;15.432;2023-01-09T11:59:28;5.80;99.90
16116;DHT22;8162;47.104;15.432;2023-01-09T12:13:33;5.80;99.90
16116;DHT22;8162;47.104;15.432;2023-01-09T12:16:04;5.80;99.90
16116;DHT22;8162;47.104;15.432;2023-01-09T12:21:30;5.80;99.90
16116;DHT22;8162;47.104;15.432;2023-01-09T12:26:53;5.90;99.90
16116;DHT22;8162;47.104;15.432;2023-01-09T12:35:19;5.90;99.90
16116;DHT22;8162;47.104;15.432;2023-01-09T12:53:23;6.00;99.90
16116;DHT22;8162;47.104;15.432;2023-01-09T12:55:58;6.00;99.90
16116;DHT22;8162;47.104;15.432;2023-01-09T13:01:11;6.10;99.90
16116;DHT22;8162;47.104;15.432;2023-01-09T13:06:34;6.10;99.90
16116;DHT22;8162;47.104;15.432;2023-01-09T13:09:42;6.20;99.90
16116;DHT22;8162;47.104;15.432;2023-01-09T13:12:14;6.20;99.90
16116;DHT22;8162;47.104;15.432;2023-01-09T13:14:50;6.20;99.90
16116;DHT22;8162;47.104;15.432;2023-01-09T13:17:39;6.20;99.90
16116;DHT22;8162;47.104;15.432;2023-01-09T13:20:21;6.20;99.90
16116;DHT22;8162;47.104;15.432;2023-01-09T13:22:48;6.20;99.90
16116;DHT22;8162;47.104;15.432;2023-01-09T13:25:42;6.10;99.90
16116;DHT22;8162;47.104;15.432;2023-01-09T13:28:23;6.10;99.90
16116;DHT22;8162;47.104;15.432;2023-01-09T13:33:27;6.10;99.90
16116;DHT22;8162;47.104;15.432;2023-01-09T13:35:58;6.10;99.90
16116;DHT22;8162;47.104;15.432;2023-01-09T13:38:26;6.20;99.90
16116;DHT22;8162;47.104;15.432;2023-01-09T13:44:00;6.10;99.90
16116;DHT22;8162;47.104;15.432;2023-01-09T13:46:38;6.10;99.90
16116;DHT22;8162;47.104;15.432;2023-01-09T13:49:05;6.20;99.90
16116;DHT22;8162;47.104;15.432;2023-01-09T13:54:09;6.10;99.90
16116;DHT22;8162;47.104;15.432;2023-01-09T13:59:38;6.10;99.90
16116;DHT22;8162;47.104;15.432;2023-01-09T14:04:58;6.10;99.90
16116;DHT22;8162;47.104;15.432;2023-01-09T14:07:32;6.10;99.90
16116;DHT22;8162;47.104;15.432;2023-01-09T14:10:00;6.10;99.90
16116;DHT22;8162;47.104;15.432;2023-01-09T14:12:28;6.10;99.90
16116;DHT22;8162;47.104;15.432;2023-01-09T14:14:58;6.10;99.90
16116;DHT22;8162;47.104;15.432;2023-01-09T14:17:31;6.10;99.90
16116;DHT22;8162;47.104;15.432;2023-01-09T14:20:01;6.10;99.90
16116;DHT22;8162;47.104;15.432;2023-01-09T14:22:36;6.10;99.90
16116;DHT22;8162;47.104;15.432;2023-01-09T14:25:09;6.10;99.90
16116;DHT22;8162;47.104;15.432;2023-01-09T14:35:50;6.00;99.90
16116;DHT22;8162;47.104;15.432;2023-01-09T14:38:52;6.00;99.90
16116;DHT22;8162;47.104;15.432;2023-01-09T14:44:02;5.90;99.90
16116;DHT22;8162;47.104;15.432;2023-01-09T14:46:33;5.90;99.90
16116;DHT22;8162;47.104;15.432;2023-01-09T14:51:47;5.80;99.90
16116;DHT22;8162;47.104;15.432;2023-01-09T14:54:23;5.70;99.90
16116;DHT22;8162;47.104;15.432;2023-01-09T14:56:51;5.70;99.90
16116;DHT22;8162;47.104;15.432;2023-01-09T14:59:18;5.70;99.90
16116;DHT22;8162;47.104;15.432;2023-01-09T15:01:46;5.60;99.90
16116;DHT22;8162;47.104;15.432;2023-01-09T15:06:51;5.60;99.90
16116;DHT22;8162;47.104;15.432;2023-01-09T15:11:53;5.60;99.90
16116;DHT22;8162;47.104;15.432;2023-01-09T15:14:42;5.50;99.90
16116;DHT22;8162;47.104;15.432;2023-01-09T15:17:20;5.50;99.90
16116;DHT22;8162;47.104;15.432;2023-01-09T15:19:47;5.50;99.90
16116;DHT22;8162;47.104;15.432;2023-01-09T15:22:39;5.50;99.90
16116;DHT22;8162;47.104;15.432;2023-01-09T15:25:30;5.40;99.90
16116;DHT22;8162;47.104;15.432;2023-01-09T15:27:58;5.30;99.90
16116;DHT22;8162;47.104;15.432;2023-01-09T15:30:33;5.30;99.90
16116;DHT22;8162;47.104;15.432;2023-01-09T15:33:08;5.30;99.90
16116;DHT22;8162;47.104;15.432;2023-01-09T15:35:39;5.30;99.90
16116;DHT22;8162;47.104;15.432;2023-01-09T15:38:05;5.30;99.90
16116;DHT22;8162;47.104;15.432;2023-01-09T15:40:32;5.30;99.90
16116;DHT22;8162;47.104;15.432;2023-01-09T15:42:59;5.20;99.90
16116;DHT22;8162;47.104;15.432;2023-01-09T15:45:38;5.20;99.90
16116;DHT22;8162;47.104;15.432;2023-01-09T15:50:49;5.10;99.90
16116;DHT22;8162;47.104;15.432;2023-01-09T15:53:21;5.10;99.90
16116;DHT22;8162;47.104;15.432;2023-01-09T15:56:17;5.00;99.90
16116;DHT22;8162;47.104;15.432;2023-01-09T15:58:47;5.00;99.90
16116;DHT22;8162;47.104;15.432;2023-01-09T16:01:34;5.00;99.90
16116;DHT22;8162;47.104;15.432;2023-01-09T16:04:11;5.00;99.90
16116;DHT22;8162;47.104;15.432;2023-01-09T16:06:43;5.00;99.90
16116;DHT22;8162;47.104;15.432;2023-01-09T16:09:23;5.00;99.90
16116;DHT22;8162;47.104;15.432;2023-01-09T16:11:53;5.00;99.90
16116;DHT22;8162;47.104;15.432;2023-01-09T16:14:23;5.00;99.90
16116;DHT22;8162;47.104;15.432;2023-01-09T16:16:53;4.90;99.90
16116;DHT22;8162;47.104;15.432;2023-01-09T16:22:28;4.90;99.90
16116;DHT22;8162;47.104;15.432;2023-01-09T16:24:57;4.90;99.90
16116;DHT22;8162;47.104;15.432;2023-01-09T16:27:31;4.80;99.90
16116;DHT22;8162;47.104;15.432;2023-01-09T16:30:05;4.70;99.90
16116;DHT22;8162;47.104;15.432;2023-01-09T16:32:34;4.70;99.90
16116;DHT22;8162;47.104;15.432;2023-01-09T16:35:05;4.70;99.90
16116;DHT22;8162;47.104;15.432;2023-01-09T16:37:31;4.70;99.90
16116;DHT22;8162;47.104;15.432;2023-01-09T16:40:22;4.70;99.90
16116;DHT22;8162;47.104;15.432;2023-01-09T16:42:51;4.60;99.90
16116;DHT22;8162;47.104;15.432;2023-01-09T16:45:37;4.60;99.70
16116;DHT22;8162;47.104;15.432;2023-01-09T16:48:10;4.60;99.60
16116;DHT22;8162;47.104;15.432;2023-01-09T16:50:36;4.50;99.30
16116;DHT22;8162;47.104;15.432;2023-01-09T16:53:13;4.50;98.40
16116;DHT22;8162;47.104;15.432;2023-01-09T16:55:39;4.50;97.10
16116;DHT22;8162;47.104;15.432;2023-01-09T16:58:07;4.50;96.90
16116;DHT22;8162;47.104;15.432;2023-01-09T17:00:33;4.50;96.90
16116;DHT22;8162;47.104;15.432;2023-01-09T17:02:58;4.50;96.30
16116;DHT22;8162;47.104;15.432;2023-01-09T17:05:25;4.40;96.50
16116;DHT22;8162;47.104;15.432;2023-01-09T17:07:50;4.40;96.70
16116;DHT22;8162;47.104;15.432;2023-01-09T17:10:20;4.50;97.00
16116;DHT22;8162;47.104;15.432;2023-01-09T17:12:46;4.50;97.80
16116;DHT22;8162;47.104;15.432;2023-01-09T17:15:12;4.50;98.30
16116;DHT22;8162;47.104;15.432;2023-01-09T17:17:38;4.50;98.60
16116;DHT22;8162;47.104;15.432;2023-01-09T17:20:15;4.50;98.20
16116;DHT22;8162;47.104;15.432;2023-01-09T17:22:41;4.50;97.70
16116;DHT22;8162;47.104;15.432;2023-01-09T17:25:12;4.60;97.80
16116;DHT22;8162;47.104;15.432;2023-01-09T17:27:56;4.50;96.80
16116;DHT22;8162;47.104;15.432;2023-01-09T17:30:41;4.60;97.80
16116;DHT22;8162;47.104;15.432;2023-01-09T17:33:14;4.60;98.40
16116;DHT22;8162;47.104;15.432;2023-01-09T17:35:40;4.70;97.10
16116;DHT22;8162;47.104;15.432;2023-01-09T17:38:07;4.70;97.70
16116;DHT22;8162;47.104;15.432;2023-01-09T17:40:33;4.70;95.50
16116;DHT22;8162;47.104;15.432;2023-01-09T17:42:59;4.70;95.50
16116;DHT22;8162;47.104;15.432;2023-01-09T17:45:25;4.70;95.50
16116;DHT22;8162;47.104;15.432;2023-01-09T17:47:52;4.60;97.20
16116;DHT22;8162;47.104;15.432;2023-01-09T17:50:19;4.70;97.00
16116;DHT22;8162;47.104;15.432;2023-01-09T17:52:48;4.60;95.60
16116;DHT22;8162;47.104;15.432;2023-01-09T17:55:15;4.70;94.60
16116;DHT22;8162;47.104;15.432;2023-01-09T17:57:42;4.70;96.20
16116;DHT22;8162;47.104;15.432;2023-01-09T18:00:31;4.70;95.40
16116;DHT22;8162;47.104;15.432;2023-01-09T18:03:02;4.70;95.20
16116;DHT22;8162;47.104;15.432;2023-01-09T18:05:28;4.70;96.20
16116;DHT22;8162;47.104;15.432;2023-01-09T18:07:54;4.70;97.20
16116;DHT22;8162;47.104;15.432;2023-01-09T18:10:22;4.70;97.90
16116;DHT22;8162;47.104;15.432;2023-01-09T18:12:50;4.70;98.00
16116;DHT22;8162;47.104;15.432;2023-01-09T18:15:16;4.80;98.30
16116;DHT22;8162;47.104;15.432;2023-01-09T18:17:42;4.80;98.30
16116;DHT22;8162;47.104;15.432;2023-01-09T18:20:08;4.90;98.50
16116;DHT22;8162;47.104;15.432;2023-01-09T18:22:35;4.90;98.70
16116;DHT22;8162;47.104;15.432;2023-01-09T18:25:01;4.90;99.00
16116;DHT22;8162;47.104;15.432;2023-01-09T18:27:27;4.90;99.30
16116;DHT22;8162;47.104;15.432;2023-01-09T18:29:52;4.90;99.40
16116;DHT22;8162;47.104;15.432;2023-01-09T18:32:18;4.90;99.00
16116;DHT22;8162;47.104;15.432;2023-01-09T18:34:44;4.90;99.20
16116;DHT22;8162;47.104;15.432;2023-01-09T18:37:10;4.90;99.40
16116;DHT22;8162;47.104;15.432;2023-01-09T18:39:36;4.90;99.40
16116;DHT22;8162;47.104;15.432;2023-01-09T18:42:02;4.90;99.70
16116;DHT22;8162;47.104;15.432;2023-01-09T18:44:28;4.90;99.40